createdAt,value
2018-04-25T00:00:44.874Z,11.50
2018-04-25T00:03:12.532Z,13.80
2018-04-25T00:05:40.186Z,13.25
2018-04-25T00:08:07.865Z,11.53
2018-04-25T00:10:35.527Z,11.50
2018-04-25T00:13:03.168Z,11.20
2018-04-25T00:15:30.803Z,11.27
2018-04-25T00:17:58.491Z,9.30
2018-04-25T00:20:27.700Z,11.63
2018-04-25T00:22:55.379Z,10.35
2018-04-25T00:25:23.146Z,9.70
2018-04-25T00:27:50.671Z,9.65
2018-04-25T00:30:18.257Z,9.73
2018-04-25T00:32:45.835Z,9.53
2018-04-25T00:35:14.375Z,9.60
2018-04-25T00:37:41.972Z,10.77
2018-04-25T00:40:10.432Z,18.00
2018-04-25T00:42:38.917Z,8.03
2018-04-25T00:45:07.265Z,11.50
2018-04-25T00:47:35.035Z,7.93
2018-04-25T00:50:02.555Z,9.30
2018-04-25T00:52:31.050Z,7.60
2018-04-25T00:54:58.571Z,8.93
2018-04-25T00:57:26.505Z,8.67
2018-04-25T00:59:54.195Z,8.38
2018-04-25T01:02:22.628Z,10.20
2018-04-25T01:04:50.349Z,8.70
2018-04-25T01:07:17.993Z,7.70
2018-04-25T01:09:46.482Z,8.00
2018-04-25T01:12:13.995Z,7.30
2018-04-25T01:14:41.532Z,8.60
2018-04-25T01:17:09.055Z,8.50
2018-04-25T01:19:37.455Z,7.50
2018-04-25T01:22:05.151Z,7.40
2018-04-25T01:24:32.814Z,7.60
2018-04-25T01:27:01.270Z,7.18
2018-04-25T01:29:28.870Z,9.57
2018-04-25T01:31:56.509Z,7.60
2018-04-25T01:34:30.668Z,6.93
2018-04-25T01:40:00.072Z,6.85
2018-04-25T01:42:32.484Z,9.50
2018-04-25T01:48:06.668Z,8.40
2018-04-25T01:50:36.955Z,7.62
2018-04-25T01:53:16.316Z,7.28
2018-04-25T01:55:55.968Z,8.30
2018-04-25T01:58:35.576Z,7.20
2018-04-25T02:01:16.064Z,10.15
2018-04-25T02:04:00.311Z,10.30
2018-04-25T02:06:27.969Z,6.25
2018-04-25T02:08:56.364Z,6.53
2018-04-25T02:11:24.006Z,8.50
2018-04-25T02:13:51.627Z,6.90
2018-04-25T02:16:19.238Z,5.00
2018-04-25T02:18:46.907Z,4.62
2018-04-25T02:21:14.476Z,5.25
2018-04-25T02:23:42.060Z,4.47
2018-04-25T02:26:09.652Z,4.10
2018-04-25T02:28:37.332Z,5.65
2018-04-25T02:31:04.896Z,7.07
2018-04-25T02:33:33.307Z,4.53
2018-04-25T02:36:00.871Z,3.90
2018-04-25T02:38:28.607Z,4.50
2018-04-25T02:40:56.352Z,5.12
2018-04-25T02:43:23.973Z,6.90
2018-04-25T02:45:51.584Z,5.32
2018-04-25T02:48:19.111Z,4.55
2018-04-25T02:50:46.737Z,4.37
2018-04-25T02:53:14.362Z,4.22
2018-04-25T02:55:41.936Z,8.03
2018-04-25T02:58:09.552Z,6.55
2018-04-25T03:00:37.248Z,8.05
2018-04-25T03:03:05.860Z,3.47
2018-04-25T03:05:33.561Z,3.50
2018-04-25T03:08:01.288Z,4.15
2018-04-25T03:10:29.019Z,3.20
2018-04-25T03:12:56.685Z,4.07
2018-04-25T03:15:24.551Z,3.75
2018-04-25T03:17:52.109Z,7.82
2018-04-25T03:20:20.585Z,5.35
2018-04-25T03:22:48.052Z,3.93
2018-04-25T03:25:15.805Z,3.10
2018-04-25T03:27:44.325Z,6.03
2018-04-25T03:30:12.177Z,7.00
2018-04-25T03:32:39.809Z,4.23
2018-04-25T03:35:07.534Z,4.15
2018-04-25T03:37:35.288Z,6.05
2018-04-25T03:40:02.941Z,3.10
2018-04-25T03:42:30.675Z,5.22
2018-04-25T03:44:59.155Z,5.80
2018-04-25T03:47:27.005Z,4.20
2018-04-25T03:49:54.562Z,6.22
2018-04-25T03:52:22.306Z,1.90
2018-04-25T03:54:49.919Z,4.93
2018-04-25T03:57:17.785Z,4.57
2018-04-25T03:59:45.448Z,6.05
2018-04-25T04:02:13.011Z,3.22
2018-04-25T04:04:40.667Z,4.40
2018-04-25T04:07:08.441Z,4.40
2018-04-25T04:09:36.080Z,2.37
2018-04-25T04:12:03.828Z,3.58
2018-04-25T04:14:31.505Z,2.85
2018-04-25T04:16:59.293Z,2.12
2018-04-25T04:19:27.855Z,4.75
2018-04-25T04:21:56.124Z,2.95
2018-04-25T04:24:23.727Z,5.22
2018-04-25T04:26:51.314Z,3.90
2018-04-25T04:29:19.013Z,3.85
2018-04-25T04:31:46.659Z,6.82
2018-04-25T04:34:15.143Z,5.15
2018-04-25T04:36:47.513Z,4.12
2018-04-25T04:39:20.021Z,3.55
2018-04-25T04:44:37.822Z,6.18
2018-04-25T04:47:12.624Z,5.43
2018-04-25T04:49:47.700Z,4.93
2018-04-25T04:52:16.481Z,5.90
2018-04-25T04:54:46.424Z,8.40
2018-04-25T04:57:16.689Z,5.00
2018-04-25T04:59:48.469Z,8.25
2018-04-25T05:06:07.818Z,8.13
2018-04-25T05:08:39.090Z,5.78
2018-04-25T05:11:12.027Z,5.93
2018-04-25T05:13:46.838Z,6.05
2018-04-25T05:16:19.146Z,8.75
2018-04-25T05:18:49.142Z,4.97
2018-04-25T05:21:19.238Z,4.93
2018-04-25T05:23:46.787Z,6.68
2018-04-25T05:26:14.600Z,6.80
2018-04-25T05:28:43.042Z,5.18
2018-04-25T05:31:10.702Z,5.50
2018-04-25T05:33:38.908Z,5.97
2018-04-25T05:36:07.656Z,6.15
2018-04-25T05:38:35.384Z,6.00
2018-04-25T05:41:02.996Z,9.20
2018-04-25T05:43:31.816Z,5.97
2018-04-25T05:46:01.122Z,8.40
2018-04-25T05:48:29.559Z,6.07
2018-04-25T05:50:57.911Z,4.95
2018-04-25T05:53:25.599Z,5.68
2018-04-25T05:55:53.251Z,6.07
2018-04-25T05:58:20.944Z,5.90
2018-04-25T06:00:49.340Z,5.80
2018-04-25T06:03:17.796Z,6.10
2018-04-25T06:05:48.153Z,5.90
2018-04-25T06:08:21.235Z,9.15
2018-04-25T06:10:57.371Z,7.12
2018-04-25T06:13:26.643Z,6.65
2018-04-25T06:15:55.487Z,6.40
2018-04-25T06:18:26.276Z,6.20
2018-04-25T06:21:02.617Z,6.78
2018-04-25T06:23:32.467Z,7.18
2018-04-25T06:26:02.163Z,8.13
2018-04-25T06:28:31.568Z,8.73
2018-04-25T06:31:01.841Z,6.97
2018-04-25T06:33:30.361Z,6.75
2018-04-25T06:35:57.893Z,7.60
2018-04-25T06:38:26.272Z,6.12
2018-04-25T06:40:54.645Z,9.55
2018-04-25T06:43:23.473Z,11.00
2018-04-25T06:45:51.651Z,9.25
2018-04-25T06:48:26.699Z,9.02
2018-04-25T06:50:57.083Z,8.07
2018-04-25T06:53:25.612Z,8.85
2018-04-25T06:55:54.604Z,8.85
2018-04-25T06:58:22.124Z,7.78
2018-04-25T07:00:49.674Z,7.85
2018-04-25T07:03:18.483Z,9.05
2018-04-25T07:05:46.031Z,8.10
2018-04-25T07:08:13.603Z,8.85
2018-04-25T07:10:41.068Z,7.62
2018-04-25T07:13:08.581Z,9.25
2018-04-25T07:15:36.120Z,8.30
2018-04-25T07:18:03.628Z,9.35
2018-04-25T07:20:32.399Z,8.57
2018-04-25T07:23:01.953Z,10.27
2018-04-25T07:25:31.944Z,10.15
2018-04-25T07:27:59.815Z,9.90
2018-04-25T07:30:27.395Z,10.15
2018-04-25T07:32:55.025Z,9.43
2018-04-25T07:35:23.311Z,10.35
2018-04-25T07:37:50.758Z,10.20
2018-04-25T07:40:18.287Z,9.32
2018-04-25T07:42:45.810Z,16.10
2018-04-25T07:45:13.343Z,10.48
2018-04-25T07:47:40.978Z,10.07
2018-04-25T07:50:09.280Z,8.77
2018-04-25T07:52:36.792Z,6.57
2018-04-25T07:55:04.339Z,7.60
2018-04-25T07:57:31.839Z,7.20
2018-04-25T08:00:00.132Z,7.27
2018-04-25T08:02:28.407Z,7.87
2018-04-25T08:04:55.931Z,7.17
2018-04-25T08:07:24.540Z,6.13
2018-04-25T08:09:52.107Z,11.47
2018-04-25T08:12:32.135Z,6.17
2018-04-25T08:15:11.460Z,5.03
2018-04-25T08:17:51.014Z,3.83
2018-04-25T08:20:30.459Z,5.50
2018-04-25T08:22:58.110Z,5.70
2018-04-25T08:25:26.395Z,8.13
2018-04-25T08:27:54.662Z,5.30
2018-04-25T08:30:22.187Z,5.27
2018-04-25T08:32:49.679Z,4.60
2018-04-25T08:35:17.210Z,5.37
2018-04-25T08:37:44.723Z,4.50
2018-04-25T08:40:13.142Z,5.30
2018-04-25T08:42:40.742Z,10.30
2018-04-25T08:45:08.335Z,4.47
2018-04-25T08:47:35.850Z,10.67
2018-04-25T08:50:03.351Z,6.43
2018-04-25T08:52:30.862Z,10.40
2018-04-25T08:54:58.394Z,12.87
2018-04-25T08:57:25.914Z,6.67
2018-04-25T08:59:53.439Z,5.23
2018-04-25T09:02:20.959Z,12.87
2018-04-25T09:04:48.491Z,5.33
2018-04-25T09:07:15.996Z,10.00
2018-04-25T09:09:43.536Z,6.53
2018-04-25T09:12:11.035Z,8.07
2018-04-25T09:14:38.542Z,9.60
2018-04-25T09:17:06.051Z,5.60
2018-04-25T09:19:33.551Z,5.90
2018-04-25T09:22:01.051Z,5.37
2018-04-25T09:24:28.585Z,6.90
2018-04-25T09:27:03.242Z,8.37
2018-04-25T09:29:31.527Z,5.97
2018-04-25T09:31:59.052Z,9.20
2018-04-25T09:34:26.750Z,6.60
2018-04-25T09:36:54.242Z,6.13
2018-04-25T09:39:22.507Z,6.80
2018-04-25T09:41:50.859Z,6.80
2018-04-25T09:44:18.367Z,7.10
2018-04-25T09:46:45.877Z,10.00
2018-04-25T09:49:13.393Z,7.80
2018-04-25T09:51:40.977Z,7.87
2018-04-25T09:54:08.452Z,8.77
2018-04-25T09:56:35.959Z,8.20
2018-04-25T09:59:03.499Z,8.23
2018-04-25T10:01:31.771Z,9.30
2018-04-25T10:04:00.056Z,8.67
2018-04-25T10:06:28.358Z,8.50
2018-04-25T10:08:55.869Z,11.53
2018-04-25T10:11:23.367Z,11.70
2018-04-25T10:13:54.665Z,9.50
2018-04-25T10:16:24.266Z,12.33
2018-04-25T10:18:56.033Z,8.63
2018-04-25T10:21:23.607Z,8.30
2018-04-25T10:23:51.107Z,10.63
2018-04-25T10:26:18.627Z,9.17
2018-04-25T10:28:46.119Z,9.30
2018-04-25T10:31:13.976Z,9.17
2018-04-25T10:33:42.035Z,11.60
2018-04-25T10:36:10.311Z,9.90
2018-04-25T10:38:38.655Z,11.73
2018-04-25T10:41:06.196Z,9.83
2018-04-25T10:43:33.701Z,9.93
2018-04-25T10:46:01.205Z,9.67
2018-04-25T10:48:29.915Z,9.03
2018-04-25T10:50:59.127Z,8.60
2018-04-25T10:53:28.146Z,9.80
2018-04-25T10:55:56.523Z,8.00
2018-04-25T10:58:24.825Z,8.47
2018-04-25T11:00:52.334Z,7.13
2018-04-25T11:03:19.859Z,6.67
2018-04-25T11:05:47.366Z,6.20
2018-04-25T11:08:15.770Z,5.90
2018-04-25T11:10:46.247Z,5.60
2018-04-25T11:13:15.864Z,7.40
2018-04-25T11:15:44.210Z,6.87
2018-04-25T11:18:11.717Z,6.90
2018-04-25T11:20:39.311Z,8.00
2018-04-25T11:23:06.917Z,6.20
2018-04-25T11:25:34.415Z,8.60
2018-04-25T11:28:02.783Z,7.40
2018-04-25T11:30:31.087Z,6.67
2018-04-25T11:32:58.594Z,6.90
2018-04-25T11:35:26.127Z,7.90
2018-04-25T11:37:54.543Z,4.73
2018-04-25T11:40:22.043Z,8.40
2018-04-25T11:42:49.539Z,5.30
2018-04-25T11:45:17.826Z,4.73
2018-04-25T11:47:45.338Z,5.73
2018-04-25T11:50:13.063Z,6.73
2018-04-25T11:52:40.733Z,4.67
2018-04-25T11:55:09.649Z,3.83
2018-04-25T11:57:37.167Z,3.00
2018-04-25T12:00:04.683Z,3.20
2018-04-25T12:02:32.249Z,3.17
2018-04-25T12:04:59.878Z,2.70
2018-04-25T12:07:27.471Z,4.40
2018-04-25T12:09:54.967Z,2.83
2018-04-25T12:12:22.465Z,2.70
2018-04-25T12:14:50.745Z,3.80
2018-04-25T12:17:18.239Z,2.83
2018-04-25T12:19:45.755Z,3.37
2018-04-25T12:22:14.039Z,3.37
2018-04-25T12:24:41.535Z,2.60
2018-04-25T12:27:09.031Z,2.27
2018-04-25T12:29:36.693Z,5.13
2018-04-25T12:32:04.179Z,2.57
2018-04-25T12:34:31.675Z,3.00
2018-04-25T12:36:59.220Z,4.03
2018-04-25T12:39:26.708Z,4.47
2018-04-25T12:41:54.211Z,3.57
2018-04-25T12:44:21.751Z,3.03
2018-04-25T12:46:50.037Z,2.63
2018-04-25T12:49:19.057Z,4.47
2018-04-25T12:51:46.591Z,5.07
2018-04-25T12:54:14.086Z,2.97
2018-04-25T12:56:43.287Z,4.40
2018-04-25T12:59:10.811Z,5.60
2018-04-25T13:01:38.315Z,3.20
2018-04-25T13:04:06.976Z,2.97
2018-04-25T13:06:34.516Z,8.37
2018-04-25T13:09:02.092Z,3.73
2018-04-25T13:11:29.535Z,4.10
2018-04-25T13:13:57.047Z,2.80
2018-04-25T13:16:24.548Z,1.70
2018-04-25T13:18:52.803Z,2.43
2018-04-25T13:21:21.147Z,2.43
2018-04-25T13:23:52.867Z,2.10
2018-04-25T13:26:21.126Z,3.80
2018-04-25T13:28:48.733Z,2.53
2018-04-25T13:31:16.323Z,3.90
2018-04-25T13:33:43.838Z,3.53
2018-04-25T13:36:11.359Z,3.73
2018-04-25T13:38:39.707Z,3.13
2018-04-25T13:41:07.201Z,4.17
2018-04-25T13:43:34.760Z,1.93
2018-04-25T13:46:03.065Z,2.20
2018-04-25T13:48:30.595Z,3.13
2018-04-25T13:50:59.028Z,4.10
2018-04-25T13:53:26.541Z,1.60
2018-04-25T13:55:54.083Z,2.27
2018-04-25T13:58:23.387Z,3.03
2018-04-25T14:00:51.724Z,3.90
2018-04-25T14:03:20.051Z,2.93
2018-04-25T14:05:48.319Z,2.60
2018-04-25T14:08:16.609Z,5.60
2018-04-25T14:10:44.878Z,2.13
2018-04-25T14:13:13.162Z,3.73
2018-04-25T14:15:41.422Z,2.47
2018-04-25T14:18:08.932Z,2.93
2018-04-25T14:20:36.435Z,7.20
2018-04-25T14:23:03.931Z,4.90
2018-04-25T14:25:31.442Z,3.53
2018-04-25T14:27:58.934Z,3.00
2018-04-25T14:30:27.091Z,1.93
2018-04-25T14:32:54.603Z,4.90
2018-04-25T14:35:22.104Z,2.53
2018-04-25T14:37:49.611Z,2.30
2018-04-25T14:40:17.244Z,3.30
2018-04-25T14:42:44.795Z,1.50
2018-04-25T14:45:15.107Z,5.30
2018-04-25T14:47:43.668Z,2.20
2018-04-25T14:50:11.171Z,8.20
2018-04-25T14:52:42.220Z,1.77
2018-04-25T14:55:09.788Z,3.43
2018-04-25T14:57:37.283Z,2.40
2018-04-25T15:00:04.843Z,3.90
2018-04-25T15:02:32.476Z,2.10
2018-04-25T15:05:00.082Z,2.13
2018-04-25T15:07:27.740Z,2.43
2018-04-25T15:09:55.392Z,4.33
2018-04-25T15:12:23.063Z,2.50
2018-04-25T15:14:50.774Z,1.87
2018-04-25T15:17:18.392Z,1.80
2018-04-25T15:19:45.933Z,3.40
2018-04-25T15:22:13.474Z,1.80
2018-04-25T15:24:41.180Z,4.07
2018-04-25T15:27:09.668Z,4.53
2018-04-25T15:29:37.381Z,11.93
2018-04-25T15:32:04.996Z,4.63
2018-04-25T15:34:32.597Z,5.00
2018-04-25T15:37:00.255Z,3.40
2018-04-25T15:39:28.776Z,3.60
2018-04-25T15:41:56.462Z,3.27
2018-04-25T15:44:24.048Z,6.70
2018-04-25T15:47:02.552Z,2.27
2018-04-25T15:49:33.547Z,5.43
2018-04-25T15:52:02.808Z,2.43
2018-04-25T15:54:30.420Z,3.00
2018-04-25T15:56:58.836Z,5.73
2018-04-25T15:59:26.443Z,3.27
2018-04-25T16:01:54.813Z,4.43
2018-04-25T16:04:22.522Z,4.07
2018-04-25T16:06:50.095Z,3.80
2018-04-25T16:09:18.502Z,3.20
2018-04-25T16:11:46.157Z,6.10
2018-04-25T16:14:13.771Z,3.57
2018-04-25T16:16:42.836Z,9.80
2018-04-25T16:19:10.414Z,3.50
2018-04-25T16:21:38.796Z,3.27
2018-04-25T16:24:06.343Z,5.77
2018-04-25T16:26:33.939Z,5.43
2018-04-25T16:29:01.563Z,7.13
2018-04-25T16:31:29.225Z,6.13
2018-04-25T16:33:56.826Z,8.90
2018-04-25T16:36:25.209Z,9.10
2018-04-25T16:38:53.535Z,7.20
2018-04-25T16:41:21.111Z,5.70
2018-04-25T16:43:48.720Z,4.53
2018-04-25T16:46:17.637Z,6.73
2018-04-25T16:48:45.264Z,3.67
2018-04-25T16:51:13.589Z,9.43
2018-04-25T16:53:41.260Z,4.10
2018-04-25T16:56:09.005Z,5.70
2018-04-25T16:58:36.626Z,4.33
2018-04-25T17:01:04.399Z,4.60
2018-04-25T17:03:32.706Z,4.50
2018-04-25T17:06:00.371Z,2.50
2018-04-25T17:08:27.948Z,10.67
2018-04-25T17:10:55.569Z,7.73
2018-04-25T17:13:23.150Z,6.67
2018-04-25T17:15:51.228Z,7.20
2018-04-25T17:18:18.972Z,4.60
2018-04-25T17:20:46.630Z,10.70
2018-04-25T17:23:14.244Z,4.37
2018-04-25T17:25:41.805Z,4.27
2018-04-25T17:28:09.401Z,4.90
2018-04-25T17:30:37.057Z,9.07
2018-04-25T17:33:05.491Z,9.33
2018-04-25T17:35:33.119Z,12.37
2018-04-25T17:38:00.676Z,3.63
2018-04-25T17:40:28.255Z,10.23
2018-04-25T17:42:56.782Z,8.20
2018-04-25T17:45:25.296Z,5.13
2018-04-25T17:47:52.803Z,4.73
2018-04-25T17:50:21.092Z,4.83
2018-04-25T17:52:48.932Z,9.90
2018-04-25T17:55:16.507Z,5.07
2018-04-25T17:57:44.138Z,9.13
2018-04-25T18:00:11.760Z,5.40
2018-04-25T18:02:40.196Z,7.43
2018-04-25T18:05:07.861Z,7.67
2018-04-25T18:07:35.423Z,6.17
2018-04-25T18:10:03.824Z,7.50
2018-04-25T18:12:31.626Z,5.18
2018-04-25T18:14:59.199Z,6.30
2018-04-25T18:17:26.892Z,5.72
2018-04-25T18:19:54.700Z,4.90
2018-04-25T18:22:23.112Z,7.20
2018-04-25T18:24:50.731Z,11.95
2018-04-25T18:27:19.140Z,12.82
2018-04-25T18:29:46.868Z,3.80
2018-04-25T18:32:16.043Z,5.10
2018-04-25T18:34:43.666Z,5.43
2018-04-25T18:37:12.100Z,6.12
2018-04-25T18:39:39.773Z,5.50
2018-04-25T18:42:08.271Z,5.70
2018-04-25T18:44:35.958Z,5.80
2018-04-25T18:47:04.516Z,3.37
2018-04-25T18:49:32.290Z,9.05
2018-04-25T18:51:59.926Z,9.75
2018-04-25T18:54:27.624Z,6.57
2018-04-25T18:56:55.326Z,10.43
2018-04-25T18:59:23.863Z,8.38
2018-04-25T19:01:52.291Z,4.72
2018-04-25T19:04:19.963Z,10.10
2018-04-25T19:06:47.646Z,7.10
2018-04-25T19:09:15.321Z,10.20
2018-04-25T19:11:43.071Z,12.13
2018-04-25T19:14:10.847Z,9.25
2018-04-25T19:16:38.363Z,9.68
2018-04-25T19:19:05.932Z,5.80
2018-04-25T19:21:33.595Z,4.90
2018-04-25T19:24:01.294Z,9.57
2018-04-25T19:26:29.867Z,9.13
2018-04-25T19:28:57.403Z,5.97
2018-04-25T19:31:24.904Z,6.43
2018-04-25T19:33:52.645Z,11.20
2018-04-25T19:36:20.409Z,15.80
2018-04-25T19:38:47.958Z,5.50
2018-04-25T19:41:15.483Z,10.52
2018-04-25T19:43:42.994Z,8.82
2018-04-25T19:46:11.279Z,5.30
2018-04-25T19:48:39.022Z,11.38
2018-04-25T19:51:06.905Z,12.48
2018-04-25T19:53:35.452Z,9.02
2018-04-25T19:56:04.657Z,5.65
2018-04-25T19:58:32.622Z,10.65
2018-04-25T20:01:00.298Z,5.55
2018-04-25T20:03:27.815Z,13.15
2018-04-25T20:05:55.562Z,9.50
2018-04-25T20:08:23.224Z,5.05
2018-04-25T20:10:51.563Z,8.70
2018-04-25T20:13:19.308Z,3.97
2018-04-25T20:15:46.983Z,8.18
2018-04-25T20:18:14.759Z,13.85
2018-04-25T20:20:42.395Z,10.10
2018-04-25T20:23:10.067Z,7.05
2018-04-25T20:25:37.826Z,6.00
2018-04-25T20:28:05.528Z,4.12
2018-04-25T20:30:33.328Z,8.38
2018-04-25T20:33:01.721Z,9.90
2018-04-25T20:35:29.676Z,11.60
2018-04-25T20:37:57.260Z,8.20
2018-04-25T20:40:24.867Z,8.30
2018-04-25T20:42:53.308Z,9.07
2018-04-25T20:45:20.969Z,9.38
2018-04-25T20:47:48.731Z,11.55
2018-04-25T20:50:16.395Z,8.25
2018-04-25T20:52:44.199Z,10.75
2018-04-25T20:55:12.739Z,9.93
2018-04-25T20:57:40.415Z,7.40
2018-04-25T21:00:08.140Z,8.30
2018-04-25T21:02:36.045Z,14.98
2018-04-25T21:05:04.748Z,9.15
2018-04-25T21:07:33.200Z,8.90
2018-04-25T21:10:01.695Z,7.05
2018-04-25T21:12:30.240Z,14.32
2018-04-25T21:14:58.026Z,14.00
2018-04-25T21:17:26.637Z,9.68
2018-04-25T21:19:54.168Z,14.30
2018-04-25T21:22:22.490Z,12.32
2018-04-25T21:24:50.132Z,20.60
2018-04-25T21:27:17.655Z,9.52
2018-04-25T21:29:45.368Z,10.32
2018-04-25T21:32:13.990Z,7.45
2018-04-25T21:34:41.754Z,8.00
2018-04-25T21:37:09.398Z,11.68
2018-04-25T21:39:37.070Z,12.77
2018-04-25T21:42:04.722Z,11.75
2018-04-25T21:44:33.182Z,11.98
2018-04-25T21:47:00.822Z,13.23
2018-04-25T21:49:28.382Z,9.20
2018-04-25T21:51:56.096Z,10.10
2018-04-25T21:54:23.752Z,16.00
2018-04-25T21:56:51.364Z,8.07
2018-04-25T21:59:19.027Z,11.70
2018-04-25T22:01:46.674Z,10.45
2018-04-25T22:04:14.445Z,10.82
2018-04-25T22:06:42.206Z,8.90
2018-04-25T22:09:10.028Z,13.02
2018-04-25T22:11:38.417Z,16.60
2018-04-25T22:14:06.061Z,13.20
2018-04-25T22:16:34.408Z,9.57
2018-04-25T22:19:02.166Z,12.35
2018-04-25T22:21:30.536Z,5.12
2018-04-25T22:23:58.215Z,15.15
2018-04-25T22:26:25.821Z,8.27
2018-04-25T22:28:53.410Z,11.73
2018-04-25T22:31:21.779Z,8.80
2018-04-25T22:33:49.339Z,10.88
2018-04-25T22:36:16.900Z,10.00
2018-04-25T22:38:44.554Z,6.65
2018-04-25T22:41:12.183Z,12.27
2018-04-25T22:43:39.766Z,11.50
2018-04-25T22:46:07.468Z,23.73
2018-04-25T22:48:35.125Z,8.32
2018-04-25T22:51:02.673Z,17.85
2018-04-25T22:53:30.244Z,10.77
2018-04-25T22:55:57.900Z,17.62
2018-04-25T22:58:25.523Z,14.02
2018-04-25T23:00:53.115Z,12.90
2018-04-25T23:03:20.794Z,15.73
2018-04-25T23:05:49.152Z,12.20
2018-04-25T23:08:16.708Z,12.05
2018-04-25T23:10:44.279Z,11.77
2018-04-25T23:13:11.890Z,7.37
2018-04-25T23:15:40.171Z,16.17
2018-04-25T23:18:07.780Z,14.10
2018-04-25T23:20:35.427Z,8.85
2018-04-25T23:23:03.034Z,14.07
2018-04-25T23:25:30.679Z,13.98
2018-04-25T23:27:58.181Z,10.68
2018-04-25T23:30:26.476Z,11.70
2018-04-25T23:32:54.059Z,19.25
2018-04-25T23:35:21.579Z,18.92
2018-04-25T23:37:49.971Z,16.85
2018-04-25T23:40:17.487Z,21.80
2018-04-25T23:42:45.080Z,15.02
2018-04-25T23:45:13.405Z,13.75
2018-04-25T23:47:40.930Z,14.63
2018-04-25T23:50:08.510Z,17.02
2018-04-25T23:52:36.237Z,24.58
2018-04-25T23:55:03.915Z,11.60
2018-04-25T23:57:31.565Z,12.40
2018-04-25T23:59:59.193Z,15.68
